sensor_id;sensor_type;location;lat;lon;timestamp;P1;durP1;ratioP1;P2;durP2;ratioP2
19794;SDS011;10057;59.402;17.866;2022-09-21T00:01:23;3.50;;;1.00;;
19794;SDS011;10057;59.402;17.866;2022-09-21T00:03:54;1.33;;;0.57;;
19794;SDS011;10057;59.402;17.866;2022-09-21T00:06:27;1.27;;;0.70;;
19794;SDS011;10057;59.402;17.866;2022-09-21T00:08:57;3.13;;;0.57;;
19794;SDS011;10057;59.402;17.866;2022-09-21T00:11:25;1.43;;;0.63;;
19794;SDS011;10057;59.402;17.866;2022-09-21T00:14:06;2.23;;;0.60;;
19794;SDS011;10057;59.402;17.866;2022-09-21T00:16:36;1.90;;;0.80;;
19794;SDS011;10057;59.402;17.866;2022-09-21T00:19:03;1.53;;;0.60;;
19794;SDS011;10057;59.402;17.866;2022-09-21T00:21:32;3.03;;;0.80;;
19794;SDS011;10057;59.402;17.866;2022-09-21T00:23:59;1.00;;;0.50;;
19794;SDS011;10057;59.402;17.866;2022-09-21T00:26:29;1.17;;;0.60;;
19794;SDS011;10057;59.402;17.866;2022-09-21T00:29:02;4.10;;;0.70;;
19794;SDS011;10057;59.402;17.866;2022-09-21T00:31:30;1.93;;;0.57;;
19794;SDS011;10057;59.402;17.866;2022-09-21T00:34:00;1.73;;;0.30;;
19794;SDS011;10057;59.402;17.866;2022-09-21T00:36:28;1.47;;;0.60;;
19794;SDS011;10057;59.402;17.866;2022-09-21T00:38:56;1.60;;;0.60;;
19794;SDS011;10057;59.402;17.866;2022-09-21T00:41:29;2.50;;;0.50;;
19794;SDS011;10057;59.402;17.866;2022-09-21T00:46:49;1.57;;;0.67;;
19794;SDS011;10057;59.402;17.866;2022-09-21T00:49:18;1.07;;;0.40;;
19794;SDS011;10057;59.402;17.866;2022-09-21T00:51:47;0.87;;;0.50;;
19794;SDS011;10057;59.402;17.866;2022-09-21T00:54:28;1.07;;;0.50;;
19794;SDS011;10057;59.402;17.866;2022-09-21T00:57:16;1.63;;;0.60;;
19794;SDS011;10057;59.402;17.866;2022-09-21T00:59:56;3.03;;;0.40;;
19794;SDS011;10057;59.402;17.866;2022-09-21T01:02:26;2.10;;;0.60;;
19794;SDS011;10057;59.402;17.866;2022-09-21T01:04:53;4.70;;;0.50;;
19794;SDS011;10057;59.402;17.866;2022-09-21T01:07:24;1.40;;;0.40;;
19794;SDS011;10057;59.402;17.866;2022-09-21T01:09:55;1.47;;;0.57;;
19794;SDS011;10057;59.402;17.866;2022-09-21T01:12:37;1.30;;;0.50;;
19794;SDS011;10057;59.402;17.866;2022-09-21T01:15:27;3.30;;;0.53;;
19794;SDS011;10057;59.402;17.866;2022-09-21T01:18:04;1.97;;;0.40;;
19794;SDS011;10057;59.402;17.866;2022-09-21T01:26:15;3.10;;;0.60;;
19794;SDS011;10057;59.402;17.866;2022-09-21T01:37:11;2.37;;;0.70;;
19794;SDS011;10057;59.402;17.866;2022-09-21T01:39:47;0.50;;;0.40;;
19794;SDS011;10057;59.402;17.866;2022-09-21T01:42:20;0.90;;;0.60;;
19794;SDS011;10057;59.402;17.866;2022-09-21T01:44:52;1.20;;;0.50;;
19794;SDS011;10057;59.402;17.866;2022-09-21T01:47:25;1.23;;;0.40;;
19794;SDS011;10057;59.402;17.866;2022-09-21T01:49:56;1.57;;;0.63;;
19794;SDS011;10057;59.402;17.866;2022-09-21T01:52:30;3.80;;;0.50;;
19794;SDS011;10057;59.402;17.866;2022-09-21T01:55:41;0.93;;;0.43;;
19794;SDS011;10057;59.402;17.866;2022-09-21T02:00:43;2.53;;;0.60;;
19794;SDS011;10057;59.402;17.866;2022-09-21T02:06:01;1.60;;;0.50;;
19794;SDS011;10057;59.402;17.866;2022-09-21T02:08:29;1.33;;;0.40;;
19794;SDS011;10057;59.402;17.866;2022-09-21T02:11:00;1.67;;;0.30;;
19794;SDS011;10057;59.402;17.866;2022-09-21T02:13:30;2.03;;;0.50;;
19794;SDS011;10057;59.402;17.866;2022-09-21T02:21:12;0.77;;;0.50;;
19794;SDS011;10057;59.402;17.866;2022-09-21T02:23:47;2.53;;;0.50;;
19794;SDS011;10057;59.402;17.866;2022-09-21T02:26:39;1.13;;;0.40;;
19794;SDS011;10057;59.402;17.866;2022-09-21T02:37:37;1.57;;;0.40;;
19794;SDS011;10057;59.402;17.866;2022-09-21T02:40:24;1.47;;;0.60;;
19794;SDS011;10057;59.402;17.866;2022-09-21T02:43:02;1.73;;;0.50;;
19794;SDS011;10057;59.402;17.866;2022-09-21T02:45:39;0.70;;;0.50;;
19794;SDS011;10057;59.402;17.866;2022-09-21T02:48:11;4.07;;;0.63;;
19794;SDS011;10057;59.402;17.866;2022-09-21T02:50:49;1.37;;;0.60;;
19794;SDS011;10057;59.402;17.866;2022-09-21T02:53:23;1.43;;;0.50;;
19794;SDS011;10057;59.402;17.866;2022-09-21T02:55:53;2.57;;;0.67;;
19794;SDS011;10057;59.402;17.866;2022-09-21T02:58:23;1.03;;;0.50;;
19794;SDS011;10057;59.402;17.866;2022-09-21T03:00:53;1.27;;;0.50;;
19794;SDS011;10057;59.402;17.866;2022-09-21T03:03:23;3.80;;;0.67;;
19794;SDS011;10057;59.402;17.866;2022-09-21T03:05:52;2.93;;;0.60;;
19794;SDS011;10057;59.402;17.866;2022-09-21T03:08:21;2.23;;;0.50;;
19794;SDS011;10057;59.402;17.866;2022-09-21T03:10:48;2.67;;;0.70;;
19794;SDS011;10057;59.402;17.866;2022-09-21T03:13:16;0.93;;;0.53;;
19794;SDS011;10057;59.402;17.866;2022-09-21T03:15:44;1.33;;;0.70;;
19794;SDS011;10057;59.402;17.866;2022-09-21T03:18:11;0.70;;;0.43;;
19794;SDS011;10057;59.402;17.866;2022-09-21T03:20:39;0.90;;;0.40;;
19794;SDS011;10057;59.402;17.866;2022-09-21T03:23:13;1.20;;;0.60;;
19794;SDS011;10057;59.402;17.866;2022-09-21T03:25:42;1.87;;;0.60;;
19794;SDS011;10057;59.402;17.866;2022-09-21T03:28:11;2.53;;;0.70;;
19794;SDS011;10057;59.402;17.866;2022-09-21T03:30:38;0.93;;;0.43;;
19794;SDS011;10057;59.402;17.866;2022-09-21T03:33:05;1.70;;;0.60;;
19794;SDS011;10057;59.402;17.866;2022-09-21T03:35:33;2.60;;;0.53;;
19794;SDS011;10057;59.402;17.866;2022-09-21T03:38:00;3.53;;;0.80;;
19794;SDS011;10057;59.402;17.866;2022-09-21T03:40:27;2.03;;;0.60;;
19794;SDS011;10057;59.402;17.866;2022-09-21T03:42:54;2.40;;;0.60;;
19794;SDS011;10057;59.402;17.866;2022-09-21T03:45:21;4.97;;;0.60;;
19794;SDS011;10057;59.402;17.866;2022-09-21T03:47:48;2.50;;;0.40;;
19794;SDS011;10057;59.402;17.866;2022-09-21T03:50:14;1.93;;;0.40;;
19794;SDS011;10057;59.402;17.866;2022-09-21T03:52:41;6.10;;;0.60;;
19794;SDS011;10057;59.402;17.866;2022-09-21T03:55:08;1.60;;;0.80;;
19794;SDS011;10057;59.402;17.866;2022-09-21T03:57:35;1.77;;;0.70;;
19794;SDS011;10057;59.402;17.866;2022-09-21T04:00:03;1.00;;;0.47;;
19794;SDS011;10057;59.402;17.866;2022-09-21T04:02:31;1.60;;;0.73;;
19794;SDS011;10057;59.402;17.866;2022-09-21T04:04:58;3.30;;;0.60;;
19794;SDS011;10057;59.402;17.866;2022-09-21T04:07:25;1.10;;;0.50;;
19794;SDS011;10057;59.402;17.866;2022-09-21T04:09:52;1.17;;;0.50;;
19794;SDS011;10057;59.402;17.866;2022-09-21T04:12:22;2.00;;;0.67;;
19794;SDS011;10057;59.402;17.866;2022-09-21T04:14:49;3.10;;;0.67;;
19794;SDS011;10057;59.402;17.866;2022-09-21T04:17:15;5.37;;;1.50;;
19794;SDS011;10057;59.402;17.866;2022-09-21T04:19:42;8.30;;;4.50;;
19794;SDS011;10057;59.402;17.866;2022-09-21T04:22:13;7.90;;;4.00;;
19794;SDS011;10057;59.402;17.866;2022-09-21T04:24:39;10.07;;;4.40;;
19794;SDS011;10057;59.402;17.866;2022-09-21T04:27:07;5.33;;;3.10;;
19794;SDS011;10057;59.402;17.866;2022-09-21T04:29:34;7.37;;;3.27;;
19794;SDS011;10057;59.402;17.866;2022-09-21T04:32:01;4.47;;;2.10;;
19794;SDS011;10057;59.402;17.866;2022-09-21T04:34:28;7.83;;;2.50;;
19794;SDS011;10057;59.402;17.866;2022-09-21T04:36:56;8.10;;;2.10;;
19794;SDS011;10057;59.402;17.866;2022-09-21T04:39:24;3.60;;;2.20;;
19794;SDS011;10057;59.402;17.866;2022-09-21T04:41:51;3.87;;;1.80;;
19794;SDS011;10057;59.402;17.866;2022-09-21T04:44:18;3.10;;;1.17;;
19794;SDS011;10057;59.402;17.866;2022-09-21T04:46:45;2.43;;;1.30;;
19794;SDS011;10057;59.402;17.866;2022-09-21T04:49:12;4.20;;;1.27;;
19794;SDS011;10057;59.402;17.866;2022-09-21T04:51:38;2.03;;;0.90;;
19794;SDS011;10057;59.402;17.866;2022-09-21T04:54:05;1.97;;;1.00;;
19794;SDS011;10057;59.402;17.866;2022-09-21T04:56:32;2.20;;;1.10;;
19794;SDS011;10057;59.402;17.866;2022-09-21T04:58:59;2.60;;;1.23;;
19794;SDS011;10057;59.402;17.866;2022-09-21T05:01:25;4.60;;;1.10;;
19794;SDS011;10057;59.402;17.866;2022-09-21T05:03:53;2.83;;;1.50;;
19794;SDS011;10057;59.402;17.866;2022-09-21T05:06:22;3.77;;;0.80;;
19794;SDS011;10057;59.402;17.866;2022-09-21T05:08:49;3.30;;;1.03;;
19794;SDS011;10057;59.402;17.866;2022-09-21T05:11:34;3.27;;;1.13;;
19794;SDS011;10057;59.402;17.866;2022-09-21T05:14:01;2.97;;;1.20;;
19794;SDS011;10057;59.402;17.866;2022-09-21T05:16:30;6.67;;;1.83;;
19794;SDS011;10057;59.402;17.866;2022-09-21T05:18:57;8.53;;;1.70;;
19794;SDS011;10057;59.402;17.866;2022-09-21T05:21:24;1.87;;;1.17;;
19794;SDS011;10057;59.402;17.866;2022-09-21T05:23:51;5.40;;;1.47;;
19794;SDS011;10057;59.402;17.866;2022-09-21T05:26:18;10.13;;;2.57;;
19794;SDS011;10057;59.402;17.866;2022-09-21T05:28:45;5.53;;;1.80;;
19794;SDS011;10057;59.402;17.866;2022-09-21T05:31:22;10.10;;;4.00;;
19794;SDS011;10057;59.402;17.866;2022-09-21T05:39:15;20.53;;;6.87;;
19794;SDS011;10057;59.402;17.866;2022-09-21T05:41:42;12.33;;;4.93;;
19794;SDS011;10057;59.402;17.866;2022-09-21T05:44:11;15.73;;;5.20;;
19794;SDS011;10057;59.402;17.866;2022-09-21T05:58:38;5.53;;;2.03;;
19794;SDS011;10057;59.402;17.866;2022-09-21T06:01:16;4.97;;;1.70;;
19794;SDS011;10057;59.402;17.866;2022-09-21T06:03:53;5.53;;;1.30;;
19794;SDS011;10057;59.402;17.866;2022-09-21T06:06:21;3.73;;;1.27;;
19794;SDS011;10057;59.402;17.866;2022-09-21T06:08:48;6.60;;;1.67;;
19794;SDS011;10057;59.402;17.866;2022-09-21T06:11:15;6.50;;;1.27;;
19794;SDS011;10057;59.402;17.866;2022-09-21T06:13:42;6.70;;;1.50;;
19794;SDS011;10057;59.402;17.866;2022-09-21T06:16:09;7.97;;;1.40;;
19794;SDS011;10057;59.402;17.866;2022-09-21T06:18:37;7.90;;;0.83;;
19794;SDS011;10057;59.402;17.866;2022-09-21T06:21:08;4.97;;;1.10;;
19794;SDS011;10057;59.402;17.866;2022-09-21T06:23:37;7.70;;;1.10;;
19794;SDS011;10057;59.402;17.866;2022-09-21T06:26:04;9.77;;;1.20;;
19794;SDS011;10057;59.402;17.866;2022-09-21T06:28:34;8.90;;;1.30;;
19794;SDS011;10057;59.402;17.866;2022-09-21T06:31:00;6.03;;;0.93;;
19794;SDS011;10057;59.402;17.866;2022-09-21T06:33:30;4.27;;;1.00;;
19794;SDS011;10057;59.402;17.866;2022-09-21T06:35:59;3.53;;;0.90;;
19794;SDS011;10057;59.402;17.866;2022-09-21T06:38:26;2.70;;;0.83;;
19794;SDS011;10057;59.402;17.866;2022-09-21T06:40:54;3.77;;;0.97;;
19794;SDS011;10057;59.402;17.866;2022-09-21T06:43:26;2.63;;;1.00;;
19794;SDS011;10057;59.402;17.866;2022-09-21T06:45:56;2.13;;;0.70;;
19794;SDS011;10057;59.402;17.866;2022-09-21T06:48:29;1.60;;;0.70;;
19794;SDS011;10057;59.402;17.866;2022-09-21T06:51:01;5.67;;;0.80;;
19794;SDS011;10057;59.402;17.866;2022-09-21T06:53:32;7.60;;;1.07;;
19794;SDS011;10057;59.402;17.866;2022-09-21T06:56:00;4.90;;;0.90;;
19794;SDS011;10057;59.402;17.866;2022-09-21T06:58:31;4.90;;;0.87;;
19794;SDS011;10057;59.402;17.866;2022-09-21T07:01:03;6.53;;;1.20;;
19794;SDS011;10057;59.402;17.866;2022-09-21T07:03:40;2.37;;;0.73;;
19794;SDS011;10057;59.402;17.866;2022-09-21T07:06:08;4.73;;;1.23;;
19794;SDS011;10057;59.402;17.866;2022-09-21T07:08:43;11.70;;;0.90;;
19794;SDS011;10057;59.402;17.866;2022-09-21T07:11:35;3.00;;;0.70;;
19794;SDS011;10057;59.402;17.866;2022-09-21T07:14:02;2.57;;;0.80;;
19794;SDS011;10057;59.402;17.866;2022-09-21T07:16:32;9.60;;;1.10;;
19794;SDS011;10057;59.402;17.866;2022-09-21T07:18:59;3.60;;;0.87;;
19794;SDS011;10057;59.402;17.866;2022-09-21T07:21:36;16.60;;;1.30;;
19794;SDS011;10057;59.402;17.866;2022-09-21T07:24:05;4.27;;;0.67;;
19794;SDS011;10057;59.402;17.866;2022-09-21T07:26:37;8.33;;;0.90;;
19794;SDS011;10057;59.402;17.866;2022-09-21T07:29:07;7.90;;;0.87;;
19794;SDS011;10057;59.402;17.866;2022-09-21T07:31:34;3.70;;;0.70;;
19794;SDS011;10057;59.402;17.866;2022-09-21T07:34:00;6.33;;;0.90;;
19794;SDS011;10057;59.402;17.866;2022-09-21T07:36:27;3.37;;;0.90;;
19794;SDS011;10057;59.402;17.866;2022-09-21T07:38:54;3.50;;;0.63;;
19794;SDS011;10057;59.402;17.866;2022-09-21T07:41:23;5.27;;;0.90;;
19794;SDS011;10057;59.402;17.866;2022-09-21T07:43:49;5.93;;;0.67;;
19794;SDS011;10057;59.402;17.866;2022-09-21T07:46:17;0.97;;;0.60;;
19794;SDS011;10057;59.402;17.866;2022-09-21T07:48:44;2.97;;;0.73;;
19794;SDS011;10057;59.402;17.866;2022-09-21T07:51:19;7.80;;;0.80;;
19794;SDS011;10057;59.402;17.866;2022-09-21T07:53:52;1.50;;;0.50;;
19794;SDS011;10057;59.402;17.866;2022-09-21T07:56:21;2.57;;;0.50;;
19794;SDS011;10057;59.402;17.866;2022-09-21T07:58:48;3.23;;;0.60;;
19794;SDS011;10057;59.402;17.866;2022-09-21T08:01:37;2.40;;;0.57;;
19794;SDS011;10057;59.402;17.866;2022-09-21T08:04:09;2.90;;;0.63;;
19794;SDS011;10057;59.402;17.866;2022-09-21T08:06:36;3.17;;;0.77;;
19794;SDS011;10057;59.402;17.866;2022-09-21T08:09:05;1.50;;;0.50;;
19794;SDS011;10057;59.402;17.866;2022-09-21T08:11:33;0.70;;;0.40;;
19794;SDS011;10057;59.402;17.866;2022-09-21T08:14:01;4.20;;;0.60;;
19794;SDS011;10057;59.402;17.866;2022-09-21T08:16:31;1.50;;;0.40;;
19794;SDS011;10057;59.402;17.866;2022-09-21T08:19:03;1.13;;;0.40;;
19794;SDS011;10057;59.402;17.866;2022-09-21T08:21:30;1.53;;;0.43;;
19794;SDS011;10057;59.402;17.866;2022-09-21T08:24:03;2.03;;;0.40;;
19794;SDS011;10057;59.402;17.866;2022-09-21T08:26:30;1.23;;;0.60;;
19794;SDS011;10057;59.402;17.866;2022-09-21T08:28:57;2.03;;;0.40;;
19794;SDS011;10057;59.402;17.866;2022-09-21T08:31:26;1.53;;;0.43;;
19794;SDS011;10057;59.402;17.866;2022-09-21T08:33:53;1.00;;;0.40;;
19794;SDS011;10057;59.402;17.866;2022-09-21T08:36:24;3.07;;;0.30;;
19794;SDS011;10057;59.402;17.866;2022-09-21T08:38:54;0.50;;;0.30;;
19794;SDS011;10057;59.402;17.866;2022-09-21T08:47:18;0.90;;;0.40;;
19794;SDS011;10057;59.402;17.866;2022-09-21T08:50:10;1.53;;;0.50;;
19794;SDS011;10057;59.402;17.866;2022-09-21T08:53:04;3.33;;;0.40;;
19794;SDS011;10057;59.402;17.866;2022-09-21T08:55:33;2.50;;;0.40;;
19794;SDS011;10057;59.402;17.866;2022-09-21T08:58:00;8.77;;;0.50;;
19794;SDS011;10057;59.402;17.866;2022-09-21T09:00:30;1.07;;;0.50;;
19794;SDS011;10057;59.402;17.866;2022-09-21T09:03:18;0.30;;;0.27;;
19794;SDS011;10057;59.402;17.866;2022-09-21T09:06:03;1.10;;;0.40;;
19794;SDS011;10057;59.402;17.866;2022-09-21T09:09:04;2.07;;;0.40;;
19794;SDS011;10057;59.402;17.866;2022-09-21T09:22:45;2.60;;;0.40;;
19794;SDS011;10057;59.402;17.866;2022-09-21T09:25:25;1.27;;;0.40;;
19794;SDS011;10057;59.402;17.866;2022-09-21T09:27:54;1.83;;;0.23;;
19794;SDS011;10057;59.402;17.866;2022-09-21T09:30:30;4.10;;;0.80;;
19794;SDS011;10057;59.402;17.866;2022-09-21T09:33:09;0.30;;;0.20;;
19794;SDS011;10057;59.402;17.866;2022-09-21T09:35:46;0.83;;;0.23;;
19794;SDS011;10057;59.402;17.866;2022-09-21T09:52:36;0.70;;;0.30;;
19794;SDS011;10057;59.402;17.866;2022-09-21T09:57:53;0.80;;;0.30;;
19794;SDS011;10057;59.402;17.866;2022-09-21T10:00:21;1.73;;;0.30;;
19794;SDS011;10057;59.402;17.866;2022-09-21T10:02:53;1.77;;;0.30;;
19794;SDS011;10057;59.402;17.866;2022-09-21T10:05:42;0.97;;;0.33;;
19794;SDS011;10057;59.402;17.866;2022-09-21T10:08:56;4.33;;;0.43;;
19794;SDS011;10057;59.402;17.866;2022-09-21T10:11:07;0.50;;;0.30;;
19794;SDS011;10057;59.402;17.866;2022-09-21T10:13:37;1.83;;;0.57;;
19794;SDS011;10057;59.402;17.866;2022-09-21T10:18:56;0.47;;;0.30;;
19794;SDS011;10057;59.402;17.866;2022-09-21T10:21:32;1.77;;;0.33;;
19794;SDS011;10057;59.402;17.866;2022-09-21T10:24:02;0.97;;;0.30;;
19794;SDS011;10057;59.402;17.866;2022-09-21T10:26:33;0.37;;;0.20;;
19794;SDS011;10057;59.402;17.866;2022-09-21T10:29:17;0.37;;;0.20;;
19794;SDS011;10057;59.402;17.866;2022-09-21T10:34:32;1.53;;;0.30;;
19794;SDS011;10057;59.402;17.866;2022-09-21T10:37:01;1.37;;;0.40;;
19794;SDS011;10057;59.402;17.866;2022-09-21T10:39:48;2.43;;;0.30;;
19794;SDS011;10057;59.402;17.866;2022-09-21T10:42:15;2.63;;;0.20;;
19794;SDS011;10057;59.402;17.866;2022-09-21T10:44:44;1.00;;;0.30;;
19794;SDS011;10057;59.402;17.866;2022-09-21T10:47:35;1.27;;;0.30;;
19794;SDS011;10057;59.402;17.866;2022-09-21T10:55:42;0.30;;;0.20;;
19794;SDS011;10057;59.402;17.866;2022-09-21T10:58:38;2.10;;;0.40;;
19794;SDS011;10057;59.402;17.866;2022-09-21T11:01:12;1.03;;;0.30;;
19794;SDS011;10057;59.402;17.866;2022-09-21T11:03:56;3.03;;;0.57;;
19794;SDS011;10057;59.402;17.866;2022-09-21T11:06:29;2.63;;;0.40;;
19794;SDS011;10057;59.402;17.866;2022-09-21T11:09:04;1.00;;;0.20;;
19794;SDS011;10057;59.402;17.866;2022-09-21T11:16:59;1.03;;;0.30;;
19794;SDS011;10057;59.402;17.866;2022-09-21T11:19:54;0.57;;;0.30;;
19794;SDS011;10057;59.402;17.866;2022-09-21T11:22:34;1.57;;;0.30;;
19794;SDS011;10057;59.402;17.866;2022-09-21T11:28:03;2.20;;;0.30;;
19794;SDS011;10057;59.402;17.866;2022-09-21T11:34:01;1.10;;;0.20;;
19794;SDS011;10057;59.402;17.866;2022-09-21T11:41:43;0.67;;;0.20;;
19794;SDS011;10057;59.402;17.866;2022-09-21T11:44:22;0.40;;;0.30;;
19794;SDS011;10057;59.402;17.866;2022-09-21T11:56:04;0.33;;;0.20;;
19794;SDS011;10057;59.402;17.866;2022-09-21T11:58:29;4.17;;;0.23;;
19794;SDS011;10057;59.402;17.866;2022-09-21T12:14:35;0.77;;;0.20;;
19794;SDS011;10057;59.402;17.866;2022-09-21T12:17:14;3.60;;;0.30;;
19794;SDS011;10057;59.402;17.866;2022-09-21T12:22:44;2.20;;;0.20;;
19794;SDS011;10057;59.402;17.866;2022-09-21T12:25:17;2.53;;;0.27;;
19794;SDS011;10057;59.402;17.866;2022-09-21T12:30:36;2.17;;;0.30;;
19794;SDS011;10057;59.402;17.866;2022-09-21T12:33:18;1.70;;;0.20;;
19794;SDS011;10057;59.402;17.866;2022-09-21T12:35:48;1.60;;;0.20;;
19794;SDS011;10057;59.402;17.866;2022-09-21T12:38:22;3.53;;;0.20;;
19794;SDS011;10057;59.402;17.866;2022-09-21T12:40:54;0.70;;;0.13;;
19794;SDS011;10057;59.402;17.866;2022-09-21T12:43:52;3.80;;;0.40;;
19794;SDS011;10057;59.402;17.866;2022-09-21T12:46:30;0.27;;;0.20;;
19794;SDS011;10057;59.402;17.866;2022-09-21T12:49:25;0.17;;;0.10;;
19794;SDS011;10057;59.402;17.866;2022-09-21T12:51:58;0.43;;;0.20;;
19794;SDS011;10057;59.402;17.866;2022-09-21T12:54:38;3.10;;;0.27;;
19794;SDS011;10057;59.402;17.866;2022-09-21T13:00:20;0.50;;;0.20;;
19794;SDS011;10057;59.402;17.866;2022-09-21T13:05:37;0.70;;;0.20;;
19794;SDS011;10057;59.402;17.866;2022-09-21T13:10:45;1.03;;;0.30;;
19794;SDS011;10057;59.402;17.866;2022-09-21T13:13:24;0.20;;;0.17;;
19794;SDS011;10057;59.402;17.866;2022-09-21T13:15:55;0.67;;;0.30;;
19794;SDS011;10057;59.402;17.866;2022-09-21T13:18:31;1.40;;;0.30;;
19794;SDS011;10057;59.402;17.866;2022-09-21T13:21:18;0.20;;;0.20;;
19794;SDS011;10057;59.402;17.866;2022-09-21T13:23:54;0.20;;;0.10;;
19794;SDS011;10057;59.402;17.866;2022-09-21T13:26:35;4.70;;;0.60;;
19794;SDS011;10057;59.402;17.866;2022-09-21T13:29:24;7.10;;;0.67;;
19794;SDS011;10057;59.402;17.866;2022-09-21T13:31:58;1.87;;;0.63;;
19794;SDS011;10057;59.402;17.866;2022-09-21T13:34:35;1.83;;;0.70;;
19794;SDS011;10057;59.402;17.866;2022-09-21T13:47:33;0.47;;;0.27;;
19794;SDS011;10057;59.402;17.866;2022-09-21T13:50:46;0.80;;;0.30;;
19794;SDS011;10057;59.402;17.866;2022-09-21T13:53:13;0.30;;;0.30;;
19794;SDS011;10057;59.402;17.866;2022-09-21T13:55:52;2.00;;;0.20;;
19794;SDS011;10057;59.402;17.866;2022-09-21T13:58:32;1.53;;;0.20;;
19794;SDS011;10057;59.402;17.866;2022-09-21T14:01:06;5.07;;;0.40;;
19794;SDS011;10057;59.402;17.866;2022-09-21T14:04:04;1.80;;;0.40;;
19794;SDS011;10057;59.402;17.866;2022-09-21T14:06:47;1.97;;;0.30;;
19794;SDS011;10057;59.402;17.866;2022-09-21T14:10:04;4.20;;;0.47;;
19794;SDS011;10057;59.402;17.866;2022-09-21T14:12:38;1.27;;;0.30;;
19794;SDS011;10057;59.402;17.866;2022-09-21T14:17:44;1.60;;;0.27;;
19794;SDS011;10057;59.402;17.866;2022-09-21T14:20:37;3.80;;;0.70;;
19794;SDS011;10057;59.402;17.866;2022-09-21T14:25:51;2.30;;;0.20;;
19794;SDS011;10057;59.402;17.866;2022-09-21T14:28:24;2.37;;;0.40;;
19794;SDS011;10057;59.402;17.866;2022-09-21T14:30:56;3.60;;;0.20;;
19794;SDS011;10057;59.402;17.866;2022-09-21T14:33:28;5.77;;;0.20;;
19794;SDS011;10057;59.402;17.866;2022-09-21T14:36:03;1.73;;;0.30;;
19794;SDS011;10057;59.402;17.866;2022-09-21T14:38:35;1.43;;;0.30;;
19794;SDS011;10057;59.402;17.866;2022-09-21T14:41:12;1.07;;;0.23;;
19794;SDS011;10057;59.402;17.866;2022-09-21T14:43:47;2.47;;;0.50;;
19794;SDS011;10057;59.402;17.866;2022-09-21T14:55:22;1.37;;;0.30;;
19794;SDS011;10057;59.402;17.866;2022-09-21T15:00:40;1.47;;;0.23;;
19794;SDS011;10057;59.402;17.866;2022-09-21T15:09:39;0.37;;;0.20;;
19794;SDS011;10057;59.402;17.866;2022-09-21T15:12:45;4.17;;;0.40;;
19794;SDS011;10057;59.402;17.866;2022-09-21T15:18:19;0.23;;;0.20;;
19794;SDS011;10057;59.402;17.866;2022-09-21T15:20:57;2.63;;;0.30;;
19794;SDS011;10057;59.402;17.866;2022-09-21T15:23:33;2.33;;;0.20;;
19794;SDS011;10057;59.402;17.866;2022-09-21T15:26:07;0.30;;;0.20;;
19794;SDS011;10057;59.402;17.866;2022-09-21T15:28:36;3.33;;;0.37;;
19794;SDS011;10057;59.402;17.866;2022-09-21T15:31:37;3.13;;;0.50;;
19794;SDS011;10057;59.402;17.866;2022-09-21T15:34:07;3.10;;;0.50;;
19794;SDS011;10057;59.402;17.866;2022-09-21T15:36:37;1.57;;;0.50;;
19794;SDS011;10057;59.402;17.866;2022-09-21T15:39:05;1.13;;;0.50;;
19794;SDS011;10057;59.402;17.866;2022-09-21T15:41:46;1.23;;;0.60;;
19794;SDS011;10057;59.402;17.866;2022-09-21T15:44:21;0.77;;;0.40;;
19794;SDS011;10057;59.402;17.866;2022-09-21T15:46:53;1.80;;;0.73;;
19794;SDS011;10057;59.402;17.866;2022-09-21T15:49:26;0.67;;;0.40;;
19794;SDS011;10057;59.402;17.866;2022-09-21T15:51:59;1.77;;;0.57;;
19794;SDS011;10057;59.402;17.866;2022-09-21T15:54:33;8.03;;;0.97;;
19794;SDS011;10057;59.402;17.866;2022-09-21T15:57:03;1.97;;;0.60;;
19794;SDS011;10057;59.402;17.866;2022-09-21T15:59:34;2.43;;;0.50;;
19794;SDS011;10057;59.402;17.866;2022-09-21T16:02:09;0.67;;;0.30;;
19794;SDS011;10057;59.402;17.866;2022-09-21T16:04:44;0.80;;;0.30;;
19794;SDS011;10057;59.402;17.866;2022-09-21T16:13:21;0.60;;;0.30;;
19794;SDS011;10057;59.402;17.866;2022-09-21T16:16:09;0.37;;;0.20;;
19794;SDS011;10057;59.402;17.866;2022-09-21T16:18:46;0.70;;;0.40;;
19794;SDS011;10057;59.402;17.866;2022-09-21T16:21:18;4.63;;;0.33;;
19794;SDS011;10057;59.402;17.866;2022-09-21T16:23:49;0.80;;;0.40;;
19794;SDS011;10057;59.402;17.866;2022-09-21T16:26:30;2.43;;;0.50;;
19794;SDS011;10057;59.402;17.866;2022-09-21T16:29:43;1.33;;;0.50;;
19794;SDS011;10057;59.402;17.866;2022-09-21T16:32:18;0.83;;;0.40;;
19794;SDS011;10057;59.402;17.866;2022-09-21T16:34:44;1.80;;;0.40;;
19794;SDS011;10057;59.402;17.866;2022-09-21T16:39:53;2.20;;;0.50;;
19794;SDS011;10057;59.402;17.866;2022-09-21T16:42:22;4.13;;;1.63;;
19794;SDS011;10057;59.402;17.866;2022-09-21T16:44:53;2.87;;;1.40;;
19794;SDS011;10057;59.402;17.866;2022-09-21T16:47:20;8.20;;;1.17;;
19794;SDS011;10057;59.402;17.866;2022-09-21T16:49:56;4.30;;;1.40;;
19794;SDS011;10057;59.402;17.866;2022-09-21T16:52:27;1.50;;;0.93;;
19794;SDS011;10057;59.402;17.866;2022-09-21T16:54:54;1.33;;;0.57;;
19794;SDS011;10057;59.402;17.866;2022-09-21T16:57:24;1.93;;;0.80;;
19794;SDS011;10057;59.402;17.866;2022-09-21T16:59:51;1.80;;;0.63;;
19794;SDS011;10057;59.402;17.866;2022-09-21T17:02:18;3.27;;;0.70;;
19794;SDS011;10057;59.402;17.866;2022-09-21T17:04:45;4.07;;;0.80;;
19794;SDS011;10057;59.402;17.866;2022-09-21T17:07:13;3.37;;;0.80;;
19794;SDS011;10057;59.402;17.866;2022-09-21T17:09:42;3.30;;;1.00;;
19794;SDS011;10057;59.402;17.866;2022-09-21T17:12:15;8.97;;;0.80;;
19794;SDS011;10057;59.402;17.866;2022-09-21T17:14:43;3.10;;;0.93;;
19794;SDS011;10057;59.402;17.866;2022-09-21T17:19:42;4.40;;;0.90;;
19794;SDS011;10057;59.402;17.866;2022-09-21T17:22:11;2.30;;;0.90;;
19794;SDS011;10057;59.402;17.866;2022-09-21T17:24:42;3.13;;;0.70;;
19794;SDS011;10057;59.402;17.866;2022-09-21T17:27:20;0.80;;;0.60;;
19794;SDS011;10057;59.402;17.866;2022-09-21T17:29:52;1.87;;;0.90;;
19794;SDS011;10057;59.402;17.866;2022-09-21T17:32:21;2.87;;;1.30;;
19794;SDS011;10057;59.402;17.866;2022-09-21T17:34:59;1.73;;;0.90;;
19794;SDS011;10057;59.402;17.866;2022-09-21T17:37:42;1.10;;;0.70;;
19794;SDS011;10057;59.402;17.866;2022-09-21T17:40:12;4.40;;;0.87;;
19794;SDS011;10057;59.402;17.866;2022-09-21T17:42:41;1.50;;;0.80;;
19794;SDS011;10057;59.402;17.866;2022-09-21T17:48:03;2.03;;;0.63;;
19794;SDS011;10057;59.402;17.866;2022-09-21T17:50:30;3.47;;;0.83;;
19794;SDS011;10057;59.402;17.866;2022-09-21T17:52:57;1.97;;;1.00;;
19794;SDS011;10057;59.402;17.866;2022-09-21T17:55:44;7.07;;;1.53;;
19794;SDS011;10057;59.402;17.866;2022-09-21T18:01:32;6.73;;;0.93;;
19794;SDS011;10057;59.402;17.866;2022-09-21T18:03:59;1.93;;;0.80;;
19794;SDS011;10057;59.402;17.866;2022-09-21T18:06:26;3.97;;;1.00;;
19794;SDS011;10057;59.402;17.866;2022-09-21T18:08:54;2.10;;;1.23;;
19794;SDS011;10057;59.402;17.866;2022-09-21T18:21:55;3.40;;;1.57;;
19794;SDS011;10057;59.402;17.866;2022-09-21T18:24:29;5.40;;;1.80;;
19794;SDS011;10057;59.402;17.866;2022-09-21T18:26:58;3.00;;;1.20;;
19794;SDS011;10057;59.402;17.866;2022-09-21T18:29:27;3.27;;;1.60;;
19794;SDS011;10057;59.402;17.866;2022-09-21T18:35:33;1.50;;;0.97;;
19794;SDS011;10057;59.402;17.866;2022-09-21T18:41:14;2.67;;;1.33;;
19794;SDS011;10057;59.402;17.866;2022-09-21T18:44:15;3.53;;;1.07;;
19794;SDS011;10057;59.402;17.866;2022-09-21T18:52:29;1.47;;;1.20;;
19794;SDS011;10057;59.402;17.866;2022-09-21T18:55:10;2.40;;;1.20;;
19794;SDS011;10057;59.402;17.866;2022-09-21T18:57:43;2.47;;;0.90;;